sensor_id;sensor_type;location;lat;lon;timestamp;temperature;humidity
728;DHT22;347;48.780;9.158;2023-05-23T00:01:55;19.20;43.80
728;DHT22;347;48.780;9.158;2023-05-23T00:04:23;19.20;43.90
728;DHT22;347;48.780;9.158;2023-05-23T00:06:51;19.20;44.00
728;DHT22;347;48.780;9.158;2023-05-23T00:09:17;19.10;43.90
728;DHT22;347;48.780;9.158;2023-05-23T00:11:43;19.20;44.30
728;DHT22;347;48.780;9.158;2023-05-23T00:14:13;19.10;44.50
728;DHT22;347;48.780;9.158;2023-05-23T00:16:40;19.10;45.00
728;DHT22;347;48.780;9.158;2023-05-23T00:19:07;19.00;44.90
728;DHT22;347;48.780;9.158;2023-05-23T00:21:33;19.00;45.10
728;DHT22;347;48.780;9.158;2023-05-23T00:23:58;19.00;45.30
728;DHT22;347;48.780;9.158;2023-05-23T00:26:24;19.00;45.40
728;DHT22;347;48.780;9.158;2023-05-23T00:28:49;19.00;45.40
728;DHT22;347;48.780;9.158;2023-05-23T00:31:15;18.90;45.90
728;DHT22;347;48.780;9.158;2023-05-23T00:33:41;18.90;46.70
728;DHT22;347;48.780;9.158;2023-05-23T00:36:07;18.90;46.50
728;DHT22;347;48.780;9.158;2023-05-23T00:38:33;18.90;46.40
728;DHT22;347;48.780;9.158;2023-05-23T00:40:59;18.90;46.50
728;DHT22;347;48.780;9.158;2023-05-23T00:43:24;18.90;46.60
728;DHT22;347;48.780;9.158;2023-05-23T00:45:50;18.90;46.50
728;DHT22;347;48.780;9.158;2023-05-23T00:48:16;18.90;46.70
728;DHT22;347;48.780;9.158;2023-05-23T00:50:42;18.90;46.70
728;DHT22;347;48.780;9.158;2023-05-23T00:53:07;18.90;46.70
728;DHT22;347;48.780;9.158;2023-05-23T00:55:33;18.90;46.60
728;DHT22;347;48.780;9.158;2023-05-23T00:57:59;19.00;46.70
728;DHT22;347;48.780;9.158;2023-05-23T01:00:25;18.90;46.70
728;DHT22;347;48.780;9.158;2023-05-23T01:02:51;18.90;47.20
728;DHT22;347;48.780;9.158;2023-05-23T01:05:18;18.90;47.30
728;DHT22;347;48.780;9.158;2023-05-23T01:07:45;18.90;47.20
728;DHT22;347;48.780;9.158;2023-05-23T01:10:12;18.90;47.20
728;DHT22;347;48.780;9.158;2023-05-23T01:15:39;18.90;46.90
728;DHT22;347;48.780;9.158;2023-05-23T01:18:10;18.90;47.00
728;DHT22;347;48.780;9.158;2023-05-23T01:20:51;18.90;47.10
728;DHT22;347;48.780;9.158;2023-05-23T01:28:54;18.80;47.40
728;DHT22;347;48.780;9.158;2023-05-23T01:31:23;18.80;48.00
728;DHT22;347;48.780;9.158;2023-05-23T01:33:50;18.70;48.10
728;DHT22;347;48.780;9.158;2023-05-23T01:36:18;18.70;48.20
728;DHT22;347;48.780;9.158;2023-05-23T01:38:44;18.70;48.30
728;DHT22;347;48.780;9.158;2023-05-23T01:41:09;18.70;48.40
728;DHT22;347;48.780;9.158;2023-05-23T01:43:35;18.70;48.30
728;DHT22;347;48.780;9.158;2023-05-23T01:46:02;18.70;48.20
728;DHT22;347;48.780;9.158;2023-05-23T01:48:30;18.70;48.20
728;DHT22;347;48.780;9.158;2023-05-23T01:50:56;18.60;48.50
728;DHT22;347;48.780;9.158;2023-05-23T01:53:22;18.60;48.60
728;DHT22;347;48.780;9.158;2023-05-23T01:55:49;18.60;48.60
728;DHT22;347;48.780;9.158;2023-05-23T01:58:15;18.60;49.10
728;DHT22;347;48.780;9.158;2023-05-23T02:00:41;18.60;48.80
728;DHT22;347;48.780;9.158;2023-05-23T02:03:07;18.60;48.60
728;DHT22;347;48.780;9.158;2023-05-23T02:05:32;18.60;48.70
728;DHT22;347;48.780;9.158;2023-05-23T02:07:58;18.50;48.80
728;DHT22;347;48.780;9.158;2023-05-23T02:10:23;18.60;48.60
728;DHT22;347;48.780;9.158;2023-05-23T02:12:49;18.50;48.90
728;DHT22;347;48.780;9.158;2023-05-23T02:15:14;18.50;49.10
728;DHT22;347;48.780;9.158;2023-05-23T02:17:41;18.50;49.10
728;DHT22;347;48.780;9.158;2023-05-23T02:20:07;18.50;49.10
728;DHT22;347;48.780;9.158;2023-05-23T02:22:34;18.50;49.10
728;DHT22;347;48.780;9.158;2023-05-23T02:25:00;18.50;49.10
728;DHT22;347;48.780;9.158;2023-05-23T02:27:26;18.50;49.10
728;DHT22;347;48.780;9.158;2023-05-23T02:29:51;18.50;49.10
728;DHT22;347;48.780;9.158;2023-05-23T02:32:17;18.50;48.80
728;DHT22;347;48.780;9.158;2023-05-23T02:34:42;18.50;48.80
728;DHT22;347;48.780;9.158;2023-05-23T02:37:12;18.50;49.70
728;DHT22;347;48.780;9.158;2023-05-23T02:39:38;18.50;49.10
728;DHT22;347;48.780;9.158;2023-05-23T02:42:03;18.40;49.00
728;DHT22;347;48.780;9.158;2023-05-23T02:44:29;18.40;49.00
728;DHT22;347;48.780;9.158;2023-05-23T02:46:54;18.40;49.00
728;DHT22;347;48.780;9.158;2023-05-23T02:49:20;18.40;49.00
728;DHT22;347;48.780;9.158;2023-05-23T02:51:45;18.40;49.00
728;DHT22;347;48.780;9.158;2023-05-23T02:54:11;18.40;49.00
728;DHT22;347;48.780;9.158;2023-05-23T02:56:36;18.40;49.00
728;DHT22;347;48.780;9.158;2023-05-23T02:59:02;18.40;49.00
728;DHT22;347;48.780;9.158;2023-05-23T03:01:28;18.40;49.00
728;DHT22;347;48.780;9.158;2023-05-23T03:03:53;18.40;49.00
728;DHT22;347;48.780;9.158;2023-05-23T03:06:19;18.40;49.00
728;DHT22;347;48.780;9.158;2023-05-23T03:08:46;18.30;48.90
728;DHT22;347;48.780;9.158;2023-05-23T03:11:12;18.40;49.00
728;DHT22;347;48.780;9.158;2023-05-23T03:13:37;18.30;48.90
728;DHT22;347;48.780;9.158;2023-05-23T03:16:03;18.30;48.90
728;DHT22;347;48.780;9.158;2023-05-23T03:18:28;18.30;48.90
728;DHT22;347;48.780;9.158;2023-05-23T03:20:54;18.30;48.90
728;DHT22;347;48.780;9.158;2023-05-23T03:23:19;18.30;48.90
728;DHT22;347;48.780;9.158;2023-05-23T03:25:45;18.30;48.90
728;DHT22;347;48.780;9.158;2023-05-23T03:28:10;18.30;48.90
728;DHT22;347;48.780;9.158;2023-05-23T03:30:39;18.30;48.90
728;DHT22;347;48.780;9.158;2023-05-23T03:33:05;18.30;48.90
728;DHT22;347;48.780;9.158;2023-05-23T03:35:31;18.20;48.80
728;DHT22;347;48.780;9.158;2023-05-23T03:37:57;18.20;48.80
728;DHT22;347;48.780;9.158;2023-05-23T03:40:22;18.20;48.80
728;DHT22;347;48.780;9.158;2023-05-23T03:43:03;18.20;49.20
728;DHT22;347;48.780;9.158;2023-05-23T03:45:30;18.10;49.90
728;DHT22;347;48.780;9.158;2023-05-23T03:47:56;18.10;49.60
728;DHT22;347;48.780;9.158;2023-05-23T03:50:21;18.10;49.40
728;DHT22;347;48.780;9.158;2023-05-23T03:52:47;18.20;49.10
728;DHT22;347;48.780;9.158;2023-05-23T03:55:12;18.10;49.70
728;DHT22;347;48.780;9.158;2023-05-23T03:57:38;18.10;49.70
728;DHT22;347;48.780;9.158;2023-05-23T04:00:04;18.20;49.50
728;DHT22;347;48.780;9.158;2023-05-23T04:02:37;18.20;49.20
728;DHT22;347;48.780;9.158;2023-05-23T04:05:05;18.20;48.80
728;DHT22;347;48.780;9.158;2023-05-23T04:07:31;18.20;49.10
728;DHT22;347;48.780;9.158;2023-05-23T04:09:59;18.20;49.00
728;DHT22;347;48.780;9.158;2023-05-23T04:12:25;18.20;48.80
728;DHT22;347;48.780;9.158;2023-05-23T04:14:51;18.30;49.60
728;DHT22;347;48.780;9.158;2023-05-23T04:17:17;18.20;48.80
728;DHT22;347;48.780;9.158;2023-05-23T04:19:43;18.20;49.00
728;DHT22;347;48.780;9.158;2023-05-23T04:22:09;18.20;48.80
728;DHT22;347;48.780;9.158;2023-05-23T04:24:34;18.20;48.80
728;DHT22;347;48.780;9.158;2023-05-23T04:27:00;18.20;49.10
728;DHT22;347;48.780;9.158;2023-05-23T04:29:25;18.20;49.20
728;DHT22;347;48.780;9.158;2023-05-23T04:31:52;18.20;49.40
728;DHT22;347;48.780;9.158;2023-05-23T04:34:19;18.10;49.30
728;DHT22;347;48.780;9.158;2023-05-23T04:36:46;18.20;49.10
728;DHT22;347;48.780;9.158;2023-05-23T04:39:12;18.10;49.20
728;DHT22;347;48.780;9.158;2023-05-23T04:41:38;18.10;49.20
728;DHT22;347;48.780;9.158;2023-05-23T04:44:04;18.10;49.20
728;DHT22;347;48.780;9.158;2023-05-23T04:46:30;18.10;49.30
728;DHT22;347;48.780;9.158;2023-05-23T04:48:56;18.10;49.40
728;DHT22;347;48.780;9.158;2023-05-23T04:51:23;18.20;49.20
728;DHT22;347;48.780;9.158;2023-05-23T04:53:49;18.10;49.20
728;DHT22;347;48.780;9.158;2023-05-23T04:56:15;18.10;49.10
728;DHT22;347;48.780;9.158;2023-05-23T04:58:42;18.10;49.20
728;DHT22;347;48.780;9.158;2023-05-23T05:01:10;18.10;49.10
728;DHT22;347;48.780;9.158;2023-05-23T05:03:36;18.10;49.70
728;DHT22;347;48.780;9.158;2023-05-23T05:06:02;18.10;49.80
728;DHT22;347;48.780;9.158;2023-05-23T05:08:27;18.10;49.70
728;DHT22;347;48.780;9.158;2023-05-23T05:10:53;18.10;49.70
728;DHT22;347;48.780;9.158;2023-05-23T05:13:19;18.10;49.70
728;DHT22;347;48.780;9.158;2023-05-23T05:15:45;18.00;49.90
728;DHT22;347;48.780;9.158;2023-05-23T05:18:10;18.10;49.80
728;DHT22;347;48.780;9.158;2023-05-23T05:20:36;18.10;49.60
728;DHT22;347;48.780;9.158;2023-05-23T05:23:02;18.10;49.70
728;DHT22;347;48.780;9.158;2023-05-23T05:25:27;18.10;49.80
728;DHT22;347;48.780;9.158;2023-05-23T05:27:57;18.10;49.40
728;DHT22;347;48.780;9.158;2023-05-23T05:30:22;18.10;49.50
728;DHT22;347;48.780;9.158;2023-05-23T05:32:48;18.00;49.40
728;DHT22;347;48.780;9.158;2023-05-23T05:35:14;18.10;49.60
728;DHT22;347;48.780;9.158;2023-05-23T05:37:40;18.10;49.50
728;DHT22;347;48.780;9.158;2023-05-23T05:40:05;18.00;49.70
728;DHT22;347;48.780;9.158;2023-05-23T05:42:32;18.00;49.70
728;DHT22;347;48.780;9.158;2023-05-23T05:44:58;18.00;49.70
728;DHT22;347;48.780;9.158;2023-05-23T05:47:23;18.10;49.80
728;DHT22;347;48.780;9.158;2023-05-23T05:49:49;18.00;49.40
728;DHT22;347;48.780;9.158;2023-05-23T05:52:14;18.10;49.50
728;DHT22;347;48.780;9.158;2023-05-23T05:54:40;18.00;49.30
728;DHT22;347;48.780;9.158;2023-05-23T05:57:05;18.00;49.50
728;DHT22;347;48.780;9.158;2023-05-23T05:59:31;18.00;49.40
728;DHT22;347;48.780;9.158;2023-05-23T06:01:56;18.00;49.50
728;DHT22;347;48.780;9.158;2023-05-23T06:04:22;18.10;49.30
728;DHT22;347;48.780;9.158;2023-05-23T06:06:47;18.10;48.80
728;DHT22;347;48.780;9.158;2023-05-23T06:09:13;18.10;48.70
728;DHT22;347;48.780;9.158;2023-05-23T06:11:38;18.10;48.70
728;DHT22;347;48.780;9.158;2023-05-23T06:14:05;18.10;48.80
728;DHT22;347;48.780;9.158;2023-05-23T06:16:31;18.10;49.00
728;DHT22;347;48.780;9.158;2023-05-23T06:18:57;18.10;48.70
728;DHT22;347;48.780;9.158;2023-05-23T06:21:22;18.10;48.70
728;DHT22;347;48.780;9.158;2023-05-23T06:23:48;18.10;48.70
728;DHT22;347;48.780;9.158;2023-05-23T06:26:13;18.10;48.80
728;DHT22;347;48.780;9.158;2023-05-23T06:28:39;18.20;48.80
728;DHT22;347;48.780;9.158;2023-05-23T06:31:05;18.20;48.80
728;DHT22;347;48.780;9.158;2023-05-23T06:33:31;18.20;48.50
728;DHT22;347;48.780;9.158;2023-05-23T06:35:57;18.20;48.40
728;DHT22;347;48.780;9.158;2023-05-23T06:38:22;18.20;48.20
728;DHT22;347;48.780;9.158;2023-05-23T06:40:48;18.20;48.00
728;DHT22;347;48.780;9.158;2023-05-23T06:43:13;18.20;48.20
728;DHT22;347;48.780;9.158;2023-05-23T06:45:39;18.20;48.40
728;DHT22;347;48.780;9.158;2023-05-23T06:48:05;18.20;48.50
728;DHT22;347;48.780;9.158;2023-05-23T06:50:30;18.10;48.70
728;DHT22;347;48.780;9.158;2023-05-23T06:52:56;18.10;48.40
728;DHT22;347;48.780;9.158;2023-05-23T06:55:22;18.10;48.30
728;DHT22;347;48.780;9.158;2023-05-23T06:57:48;18.10;47.90
728;DHT22;347;48.780;9.158;2023-05-23T07:00:16;18.10;48.00
728;DHT22;347;48.780;9.158;2023-05-23T07:02:42;18.10;47.70
728;DHT22;347;48.780;9.158;2023-05-23T07:05:10;18.10;47.60
728;DHT22;347;48.780;9.158;2023-05-23T07:07:35;18.00;47.70
728;DHT22;347;48.780;9.158;2023-05-23T07:10:01;18.00;47.20
728;DHT22;347;48.780;9.158;2023-05-23T07:12:26;18.00;47.10
728;DHT22;347;48.780;9.158;2023-05-23T07:14:52;17.90;47.10
728;DHT22;347;48.780;9.158;2023-05-23T07:17:17;17.90;47.20
728;DHT22;347;48.780;9.158;2023-05-23T07:19:44;17.90;46.60
728;DHT22;347;48.780;9.158;2023-05-23T07:22:10;17.80;46.40
728;DHT22;347;48.780;9.158;2023-05-23T07:24:35;17.80;45.80
728;DHT22;347;48.780;9.158;2023-05-23T07:27:01;17.80;45.60
728;DHT22;347;48.780;9.158;2023-05-23T07:29:26;17.70;45.10
728;DHT22;347;48.780;9.158;2023-05-23T07:31:52;17.70;45.50
728;DHT22;347;48.780;9.158;2023-05-23T07:34:18;17.70;45.00
728;DHT22;347;48.780;9.158;2023-05-23T07:36:43;17.70;44.90
728;DHT22;347;48.780;9.158;2023-05-23T07:39:09;17.60;45.00
728;DHT22;347;48.780;9.158;2023-05-23T07:41:35;17.60;45.10
728;DHT22;347;48.780;9.158;2023-05-23T07:44:00;17.70;45.10
728;DHT22;347;48.780;9.158;2023-05-23T07:46:26;17.70;45.50
728;DHT22;347;48.780;9.158;2023-05-23T07:48:51;17.70;45.70
728;DHT22;347;48.780;9.158;2023-05-23T07:51:17;17.70;45.40
728;DHT22;347;48.780;9.158;2023-05-23T07:53:45;17.70;44.40
728;DHT22;347;48.780;9.158;2023-05-23T07:56:11;17.60;43.40
728;DHT22;347;48.780;9.158;2023-05-23T07:58:36;17.60;42.70
728;DHT22;347;48.780;9.158;2023-05-23T08:01:02;17.50;42.10
728;DHT22;347;48.780;9.158;2023-05-23T08:03:28;17.50;41.80
728;DHT22;347;48.780;9.158;2023-05-23T08:05:53;17.50;41.30
728;DHT22;347;48.780;9.158;2023-05-23T08:08:19;17.50;41.20
728;DHT22;347;48.780;9.158;2023-05-23T08:10:44;17.50;41.70
728;DHT22;347;48.780;9.158;2023-05-23T08:13:11;17.50;41.00
728;DHT22;347;48.780;9.158;2023-05-23T08:15:36;17.50;41.50
728;DHT22;347;48.780;9.158;2023-05-23T08:18:03;17.50;41.20
728;DHT22;347;48.780;9.158;2023-05-23T08:20:29;17.50;41.20
728;DHT22;347;48.780;9.158;2023-05-23T08:22:59;17.60;40.80
728;DHT22;347;48.780;9.158;2023-05-23T08:25:26;17.50;40.90
728;DHT22;347;48.780;9.158;2023-05-23T08:27:55;17.50;40.40
728;DHT22;347;48.780;9.158;2023-05-23T08:30:22;17.50;40.40
728;DHT22;347;48.780;9.158;2023-05-23T08:32:50;17.40;40.00
728;DHT22;347;48.780;9.158;2023-05-23T08:35:15;17.40;39.90
728;DHT22;347;48.780;9.158;2023-05-23T08:37:41;17.40;40.00
728;DHT22;347;48.780;9.158;2023-05-23T08:40:13;17.40;40.10
728;DHT22;347;48.780;9.158;2023-05-23T08:42:42;17.40;39.80
728;DHT22;347;48.780;9.158;2023-05-23T08:45:08;17.40;39.70
728;DHT22;347;48.780;9.158;2023-05-23T08:47:38;17.40;39.20
728;DHT22;347;48.780;9.158;2023-05-23T08:50:07;17.40;39.50
728;DHT22;347;48.780;9.158;2023-05-23T08:52:36;17.30;39.20
728;DHT22;347;48.780;9.158;2023-05-23T08:55:06;17.30;39.60
728;DHT22;347;48.780;9.158;2023-05-23T08:57:33;17.30;39.10
728;DHT22;347;48.780;9.158;2023-05-23T09:00:00;17.30;39.00
728;DHT22;347;48.780;9.158;2023-05-23T09:02:30;17.30;39.00
728;DHT22;347;48.780;9.158;2023-05-23T09:04:56;17.30;39.20
728;DHT22;347;48.780;9.158;2023-05-23T09:07:22;17.30;39.20
728;DHT22;347;48.780;9.158;2023-05-23T09:09:47;17.40;39.20
728;DHT22;347;48.780;9.158;2023-05-23T09:12:13;17.40;39.30
728;DHT22;347;48.780;9.158;2023-05-23T09:14:39;17.30;39.30
728;DHT22;347;48.780;9.158;2023-05-23T09:17:05;17.40;39.20
728;DHT22;347;48.780;9.158;2023-05-23T09:19:31;17.40;38.70
728;DHT22;347;48.780;9.158;2023-05-23T09:21:57;17.40;38.50
728;DHT22;347;48.780;9.158;2023-05-23T09:24:22;17.30;38.40
728;DHT22;347;48.780;9.158;2023-05-23T09:26:48;17.40;38.00
728;DHT22;347;48.780;9.158;2023-05-23T09:29:18;17.30;38.00
728;DHT22;347;48.780;9.158;2023-05-23T09:31:45;17.30;37.90
728;DHT22;347;48.780;9.158;2023-05-23T09:34:10;17.30;37.90
728;DHT22;347;48.780;9.158;2023-05-23T09:36:39;17.30;37.90
728;DHT22;347;48.780;9.158;2023-05-23T09:39:05;17.30;37.90
728;DHT22;347;48.780;9.158;2023-05-23T09:41:33;17.30;37.90
728;DHT22;347;48.780;9.158;2023-05-23T09:44:04;17.30;37.40
728;DHT22;347;48.780;9.158;2023-05-23T09:46:30;17.40;37.70
728;DHT22;347;48.780;9.158;2023-05-23T09:48:56;17.30;37.50
728;DHT22;347;48.780;9.158;2023-05-23T09:51:22;17.40;37.40
728;DHT22;347;48.780;9.158;2023-05-23T09:53:48;17.50;37.20
728;DHT22;347;48.780;9.158;2023-05-23T09:56:17;17.50;37.10
728;DHT22;347;48.780;9.158;2023-05-23T09:58:49;17.50;37.00
728;DHT22;347;48.780;9.158;2023-05-23T10:01:15;17.50;36.80
728;DHT22;347;48.780;9.158;2023-05-23T10:03:47;17.50;36.80
728;DHT22;347;48.780;9.158;2023-05-23T10:09:05;17.60;36.10
728;DHT22;347;48.780;9.158;2023-05-23T10:14:00;17.70;35.40
728;DHT22;347;48.780;9.158;2023-05-23T10:16:33;17.70;35.70
728;DHT22;347;48.780;9.158;2023-05-23T10:19:06;17.80;35.30
728;DHT22;347;48.780;9.158;2023-05-23T10:21:39;17.90;35.00
728;DHT22;347;48.780;9.158;2023-05-23T10:24:07;18.00;34.10
728;DHT22;347;48.780;9.158;2023-05-23T10:26:32;18.20;33.10
728;DHT22;347;48.780;9.158;2023-05-23T10:28:59;18.30;32.20
728;DHT22;347;48.780;9.158;2023-05-23T10:31:25;18.40;31.70
728;DHT22;347;48.780;9.158;2023-05-23T10:33:57;18.40;31.00
728;DHT22;347;48.780;9.158;2023-05-23T10:36:37;18.40;31.10
728;DHT22;347;48.780;9.158;2023-05-23T10:39:08;18.40;30.80
728;DHT22;347;48.780;9.158;2023-05-23T10:41:48;18.50;31.00
728;DHT22;347;48.780;9.158;2023-05-23T10:44:29;18.50;31.20
728;DHT22;347;48.780;9.158;2023-05-23T10:46:59;18.50;31.50
728;DHT22;347;48.780;9.158;2023-05-23T10:49:42;18.40;31.50
728;DHT22;347;48.780;9.158;2023-05-23T10:52:09;18.50;31.70
728;DHT22;347;48.780;9.158;2023-05-23T10:54:47;18.40;31.80
728;DHT22;347;48.780;9.158;2023-05-23T10:57:19;18.40;32.10
728;DHT22;347;48.780;9.158;2023-05-23T10:59:46;18.40;32.20
728;DHT22;347;48.780;9.158;2023-05-23T11:02:13;18.40;32.00
728;DHT22;347;48.780;9.158;2023-05-23T11:04:40;18.40;31.90
728;DHT22;347;48.780;9.158;2023-05-23T11:07:30;18.50;31.80
728;DHT22;347;48.780;9.158;2023-05-23T11:10:10;18.50;30.50
728;DHT22;347;48.780;9.158;2023-05-23T11:12:40;18.40;30.40
728;DHT22;347;48.780;9.158;2023-05-23T11:15:26;18.50;30.00
728;DHT22;347;48.780;9.158;2023-05-23T11:17:54;18.50;29.90
728;DHT22;347;48.780;9.158;2023-05-23T11:20:22;18.50;29.10
728;DHT22;347;48.780;9.158;2023-05-23T11:25:42;18.40;29.40
728;DHT22;347;48.780;9.158;2023-05-23T11:28:11;18.50;28.30
728;DHT22;347;48.780;9.158;2023-05-23T11:30:37;18.50;28.20
728;DHT22;347;48.780;9.158;2023-05-23T11:33:08;18.50;28.40
728;DHT22;347;48.780;9.158;2023-05-23T11:35:44;18.60;28.70
728;DHT22;347;48.780;9.158;2023-05-23T11:38:10;18.60;28.70
728;DHT22;347;48.780;9.158;2023-05-23T11:40:39;18.60;29.00
728;DHT22;347;48.780;9.158;2023-05-23T11:43:10;18.70;29.10
728;DHT22;347;48.780;9.158;2023-05-23T11:45:37;18.60;29.00
728;DHT22;347;48.780;9.158;2023-05-23T11:48:10;18.60;29.00
728;DHT22;347;48.780;9.158;2023-05-23T11:50:50;18.60;28.50
728;DHT22;347;48.780;9.158;2023-05-23T11:53:18;18.60;28.90
728;DHT22;347;48.780;9.158;2023-05-23T11:55:56;18.60;29.00
728;DHT22;347;48.780;9.158;2023-05-23T11:58:42;18.70;28.40
728;DHT22;347;48.780;9.158;2023-05-23T12:01:10;18.70;27.60
728;DHT22;347;48.780;9.158;2023-05-23T12:03:47;18.70;26.90
728;DHT22;347;48.780;9.158;2023-05-23T12:06:17;18.70;27.00
728;DHT22;347;48.780;9.158;2023-05-23T12:08:43;18.70;27.60
728;DHT22;347;48.780;9.158;2023-05-23T12:11:09;18.70;27.70
728;DHT22;347;48.780;9.158;2023-05-23T12:13:36;18.80;27.60
728;DHT22;347;48.780;9.158;2023-05-23T12:16:02;18.80;27.90
728;DHT22;347;48.780;9.158;2023-05-23T12:18:30;18.80;28.10
728;DHT22;347;48.780;9.158;2023-05-23T12:21:04;18.80;27.10
728;DHT22;347;48.780;9.158;2023-05-23T12:23:32;18.90;26.50
728;DHT22;347;48.780;9.158;2023-05-23T12:25:58;18.90;26.70
728;DHT22;347;48.780;9.158;2023-05-23T12:28:37;19.00;26.50
728;DHT22;347;48.780;9.158;2023-05-23T12:31:20;19.10;26.30
728;DHT22;347;48.780;9.158;2023-05-23T12:33:47;19.10;26.40
728;DHT22;347;48.780;9.158;2023-05-23T12:36:14;19.20;26.20
728;DHT22;347;48.780;9.158;2023-05-23T12:38:41;19.10;27.00
728;DHT22;347;48.780;9.158;2023-05-23T12:41:15;19.20;27.20
728;DHT22;347;48.780;9.158;2023-05-23T12:43:49;19.10;27.30
728;DHT22;347;48.780;9.158;2023-05-23T12:46:16;19.10;27.50
728;DHT22;347;48.780;9.158;2023-05-23T12:48:41;19.10;27.60
728;DHT22;347;48.780;9.158;2023-05-23T12:51:07;19.10;27.60
728;DHT22;347;48.780;9.158;2023-05-23T12:53:32;19.20;27.70
728;DHT22;347;48.780;9.158;2023-05-23T12:55:58;19.20;27.50
728;DHT22;347;48.780;9.158;2023-05-23T12:58:23;19.20;27.70
728;DHT22;347;48.780;9.158;2023-05-23T13:00:49;19.30;26.90
728;DHT22;347;48.780;9.158;2023-05-23T13:03:14;19.40;27.00
728;DHT22;347;48.780;9.158;2023-05-23T13:05:41;19.50;26.30
728;DHT22;347;48.780;9.158;2023-05-23T13:08:06;19.50;26.60
728;DHT22;347;48.780;9.158;2023-05-23T13:10:32;19.50;26.50
728;DHT22;347;48.780;9.158;2023-05-23T13:12:57;19.50;26.00
728;DHT22;347;48.780;9.158;2023-05-23T13:15:23;19.50;26.50
728;DHT22;347;48.780;9.158;2023-05-23T13:17:48;19.60;26.40
728;DHT22;347;48.780;9.158;2023-05-23T13:20:14;19.70;25.90
728;DHT22;347;48.780;9.158;2023-05-23T13:22:40;19.60;25.90
728;DHT22;347;48.780;9.158;2023-05-23T13:25:06;19.60;26.20
728;DHT22;347;48.780;9.158;2023-05-23T13:27:33;19.60;26.10
728;DHT22;347;48.780;9.158;2023-05-23T13:29:59;19.50;26.30
728;DHT22;347;48.780;9.158;2023-05-23T13:32:25;19.60;26.00
728;DHT22;347;48.780;9.158;2023-05-23T13:34:51;19.60;26.30
728;DHT22;347;48.780;9.158;2023-05-23T13:37:17;19.50;26.80
728;DHT22;347;48.780;9.158;2023-05-23T13:39:42;19.50;27.00
728;DHT22;347;48.780;9.158;2023-05-23T13:42:08;19.50;27.10
728;DHT22;347;48.780;9.158;2023-05-23T13:44:34;19.40;27.60
728;DHT22;347;48.780;9.158;2023-05-23T13:47:09;19.40;27.50
728;DHT22;347;48.780;9.158;2023-05-23T13:49:35;19.40;27.30
728;DHT22;347;48.780;9.158;2023-05-23T13:52:00;19.40;27.30
728;DHT22;347;48.780;9.158;2023-05-23T13:54:26;19.40;27.40
728;DHT22;347;48.780;9.158;2023-05-23T13:56:51;19.30;27.40
728;DHT22;347;48.780;9.158;2023-05-23T13:59:17;19.30;27.70
728;DHT22;347;48.780;9.158;2023-05-23T14:01:48;19.30;27.50
728;DHT22;347;48.780;9.158;2023-05-23T14:04:14;19.30;27.80
728;DHT22;347;48.780;9.158;2023-05-23T14:06:39;19.30;28.00
728;DHT22;347;48.780;9.158;2023-05-23T14:09:05;19.30;28.20
728;DHT22;347;48.780;9.158;2023-05-23T14:11:31;19.20;28.40
728;DHT22;347;48.780;9.158;2023-05-23T14:13:57;19.20;28.60
728;DHT22;347;48.780;9.158;2023-05-23T14:16:23;19.20;28.60
728;DHT22;347;48.780;9.158;2023-05-23T14:18:48;19.20;28.80
728;DHT22;347;48.780;9.158;2023-05-23T14:21:14;19.20;28.90
728;DHT22;347;48.780;9.158;2023-05-23T14:23:40;19.20;28.80
728;DHT22;347;48.780;9.158;2023-05-23T14:26:05;19.30;29.20
728;DHT22;347;48.780;9.158;2023-05-23T14:28:31;19.30;28.70
728;DHT22;347;48.780;9.158;2023-05-23T14:30:57;19.30;28.50
728;DHT22;347;48.780;9.158;2023-05-23T14:33:23;19.40;28.70
728;DHT22;347;48.780;9.158;2023-05-23T14:35:49;19.40;28.80
728;DHT22;347;48.780;9.158;2023-05-23T14:38:15;19.40;28.80
728;DHT22;347;48.780;9.158;2023-05-23T14:40:41;19.40;28.80
728;DHT22;347;48.780;9.158;2023-05-23T14:43:07;19.40;28.60
728;DHT22;347;48.780;9.158;2023-05-23T14:45:32;19.50;28.50
728;DHT22;347;48.780;9.158;2023-05-23T14:47:58;19.50;28.10
728;DHT22;347;48.780;9.158;2023-05-23T14:50:25;19.50;27.90
728;DHT22;347;48.780;9.158;2023-05-23T14:52:50;19.60;27.80
728;DHT22;347;48.780;9.158;2023-05-23T14:55:16;19.70;27.50
728;DHT22;347;48.780;9.158;2023-05-23T14:57:42;19.60;27.30
728;DHT22;347;48.780;9.158;2023-05-23T15:00:08;19.60;27.70
728;DHT22;347;48.780;9.158;2023-05-23T15:02:34;19.60;27.50
728;DHT22;347;48.780;9.158;2023-05-23T15:05:00;19.60;27.50
728;DHT22;347;48.780;9.158;2023-05-23T15:07:25;19.60;27.40
728;DHT22;347;48.780;9.158;2023-05-23T15:09:51;19.50;27.30
728;DHT22;347;48.780;9.158;2023-05-23T15:12:17;19.50;26.90
728;DHT22;347;48.780;9.158;2023-05-23T15:14:43;19.50;26.60
728;DHT22;347;48.780;9.158;2023-05-23T15:17:09;19.50;26.50
728;DHT22;347;48.780;9.158;2023-05-23T15:19:37;19.50;26.40
728;DHT22;347;48.780;9.158;2023-05-23T15:22:04;19.50;26.40
728;DHT22;347;48.780;9.158;2023-05-23T15:24:30;19.60;25.60
728;DHT22;347;48.780;9.158;2023-05-23T15:26:56;19.60;25.60
728;DHT22;347;48.780;9.158;2023-05-23T15:29:21;19.60;25.50
728;DHT22;347;48.780;9.158;2023-05-23T15:31:49;19.60;25.80
728;DHT22;347;48.780;9.158;2023-05-23T15:34:15;19.60;25.30
728;DHT22;347;48.780;9.158;2023-05-23T15:36:41;19.60;25.20
728;DHT22;347;48.780;9.158;2023-05-23T15:39:06;19.60;24.90
728;DHT22;347;48.780;9.158;2023-05-23T15:41:32;19.70;26.00
728;DHT22;347;48.780;9.158;2023-05-23T15:43:57;19.60;26.20
728;DHT22;347;48.780;9.158;2023-05-23T15:46:23;19.70;26.30
728;DHT22;347;48.780;9.158;2023-05-23T15:48:48;19.70;26.40
728;DHT22;347;48.780;9.158;2023-05-23T15:51:14;19.70;26.70
728;DHT22;347;48.780;9.158;2023-05-23T15:53:40;19.70;26.80
728;DHT22;347;48.780;9.158;2023-05-23T15:56:06;19.70;26.40
728;DHT22;347;48.780;9.158;2023-05-23T15:58:32;19.70;26.30
728;DHT22;347;48.780;9.158;2023-05-23T16:00:58;19.60;26.30
728;DHT22;347;48.780;9.158;2023-05-23T16:03:24;19.60;26.30
728;DHT22;347;48.780;9.158;2023-05-23T16:05:50;19.60;26.40
728;DHT22;347;48.780;9.158;2023-05-23T16:08:15;19.60;26.20
728;DHT22;347;48.780;9.158;2023-05-23T16:10:42;19.70;25.80
728;DHT22;347;48.780;9.158;2023-05-23T16:13:07;19.70;26.20
728;DHT22;347;48.780;9.158;2023-05-23T16:15:33;19.70;26.50
728;DHT22;347;48.780;9.158;2023-05-23T16:17:59;19.70;27.00
728;DHT22;347;48.780;9.158;2023-05-23T16:20:25;19.70;26.70
728;DHT22;347;48.780;9.158;2023-05-23T16:22:50;19.60;27.30
728;DHT22;347;48.780;9.158;2023-05-23T16:25:16;19.70;27.80
728;DHT22;347;48.780;9.158;2023-05-23T16:27:41;19.60;28.00
728;DHT22;347;48.780;9.158;2023-05-23T16:30:07;19.50;27.80
728;DHT22;347;48.780;9.158;2023-05-23T16:32:34;19.50;27.90
728;DHT22;347;48.780;9.158;2023-05-23T16:35:00;19.40;27.50
728;DHT22;347;48.780;9.158;2023-05-23T16:37:25;19.40;26.50
728;DHT22;347;48.780;9.158;2023-05-23T16:39:51;19.30;26.30
728;DHT22;347;48.780;9.158;2023-05-23T16:42:17;19.40;26.70
728;DHT22;347;48.780;9.158;2023-05-23T16:44:44;19.30;27.10
728;DHT22;347;48.780;9.158;2023-05-23T16:47:09;19.30;27.20
728;DHT22;347;48.780;9.158;2023-05-23T16:49:35;19.30;27.30